sensor_id;sensor_type;location;lat;lon;timestamp;P1;durP1;ratioP1;P2;durP2;ratioP2
45578;SDS011;31293;51.390;12.254;2023-08-24T00:00:14;2.80;;;0.70;;
45578;SDS011;31293;51.390;12.254;2023-08-24T00:02:16;2.03;;;0.82;;
45578;SDS011;31293;51.390;12.254;2023-08-24T00:04:18;2.63;;;1.35;;
45578;SDS011;31293;51.390;12.254;2023-08-24T00:06:20;5.10;;;1.35;;
45578;SDS011;31293;51.390;12.254;2023-08-24T00:08:22;1.38;;;1.10;;
45578;SDS011;31293;51.390;12.254;2023-08-24T00:10:25;1.95;;;1.00;;
45578;SDS011;31293;51.390;12.254;2023-08-24T00:12:27;3.85;;;1.10;;
45578;SDS011;31293;51.390;12.254;2023-08-24T00:14:28;2.13;;;1.05;;
45578;SDS011;31293;51.390;12.254;2023-08-24T00:16:30;1.80;;;1.05;;
45578;SDS011;31293;51.390;12.254;2023-08-24T00:18:32;1.50;;;0.80;;
45578;SDS011;31293;51.390;12.254;2023-08-24T00:20:34;1.42;;;0.80;;
45578;SDS011;31293;51.390;12.254;2023-08-24T00:22:36;1.38;;;1.00;;
45578;SDS011;31293;51.390;12.254;2023-08-24T00:24:39;1.20;;;0.95;;
45578;SDS011;31293;51.390;12.254;2023-08-24T00:26:41;1.30;;;0.93;;
45578;SDS011;31293;51.390;12.254;2023-08-24T00:28:43;1.20;;;1.05;;
45578;SDS011;31293;51.390;12.254;2023-08-24T00:30:45;3.67;;;0.90;;
45578;SDS011;31293;51.390;12.254;2023-08-24T00:32:47;1.73;;;1.23;;
45578;SDS011;31293;51.390;12.254;2023-08-24T00:34:49;1.70;;;1.38;;
45578;SDS011;31293;51.390;12.254;2023-08-24T00:36:50;1.25;;;0.70;;
45578;SDS011;31293;51.390;12.254;2023-08-24T00:38:52;1.95;;;1.30;;
45578;SDS011;31293;51.390;12.254;2023-08-24T00:40:55;5.45;;;1.00;;
45578;SDS011;31293;51.390;12.254;2023-08-24T00:42:57;2.42;;;1.33;;
45578;SDS011;31293;51.390;12.254;2023-08-24T00:44:59;1.95;;;1.05;;
45578;SDS011;31293;51.390;12.254;2023-08-24T00:47:00;1.98;;;0.90;;
45578;SDS011;31293;51.390;12.254;2023-08-24T00:49:02;1.38;;;0.98;;
45578;SDS011;31293;51.390;12.254;2023-08-24T00:51:04;1.88;;;1.35;;
45578;SDS011;31293;51.390;12.254;2023-08-24T00:53:06;1.73;;;1.10;;
45578;SDS011;31293;51.390;12.254;2023-08-24T00:55:09;1.70;;;1.52;;
45578;SDS011;31293;51.390;12.254;2023-08-24T00:57:11;1.50;;;1.20;;
45578;SDS011;31293;51.390;12.254;2023-08-24T00:59:12;3.55;;;1.02;;
45578;SDS011;31293;51.390;12.254;2023-08-24T01:01:14;3.95;;;1.30;;
45578;SDS011;31293;51.390;12.254;2023-08-24T01:03:17;1.55;;;1.10;;
45578;SDS011;31293;51.390;12.254;2023-08-24T01:05:19;1.48;;;1.25;;
45578;SDS011;31293;51.390;12.254;2023-08-24T01:07:21;2.10;;;1.08;;
45578;SDS011;31293;51.390;12.254;2023-08-24T01:09:23;3.13;;;1.33;;
45578;SDS011;31293;51.390;12.254;2023-08-24T01:11:31;1.42;;;1.27;;
45578;SDS011;31293;51.390;12.254;2023-08-24T01:13:50;2.72;;;0.77;;
45578;SDS011;31293;51.390;12.254;2023-08-24T01:16:06;2.13;;;1.27;;
45578;SDS011;31293;51.390;12.254;2023-08-24T01:18:13;3.40;;;1.00;;
45578;SDS011;31293;51.390;12.254;2023-08-24T01:20:17;4.50;;;1.10;;
45578;SDS011;31293;51.390;12.254;2023-08-24T01:24:35;1.33;;;1.23;;
45578;SDS011;31293;51.390;12.254;2023-08-24T01:26:41;1.10;;;0.82;;
45578;SDS011;31293;51.390;12.254;2023-08-24T01:28:45;6.63;;;1.45;;
45578;SDS011;31293;51.390;12.254;2023-08-24T01:30:47;3.95;;;1.35;;
45578;SDS011;31293;51.390;12.254;2023-08-24T01:32:49;1.83;;;1.13;;
45578;SDS011;31293;51.390;12.254;2023-08-24T01:34:51;4.32;;;0.85;;
45578;SDS011;31293;51.390;12.254;2023-08-24T01:36:53;2.50;;;1.50;;
45578;SDS011;31293;51.390;12.254;2023-08-24T01:38:59;1.38;;;1.25;;
45578;SDS011;31293;51.390;12.254;2023-08-24T01:41:19;1.42;;;1.10;;
45578;SDS011;31293;51.390;12.254;2023-08-24T01:43:29;1.27;;;1.17;;
45578;SDS011;31293;51.390;12.254;2023-08-24T01:45:44;7.10;;;1.38;;
45578;SDS011;31293;51.390;12.254;2023-08-24T01:47:47;1.45;;;1.25;;
45578;SDS011;31293;51.390;12.254;2023-08-24T01:49:50;1.88;;;1.00;;
45578;SDS011;31293;51.390;12.254;2023-08-24T01:51:52;3.83;;;1.50;;
45578;SDS011;31293;51.390;12.254;2023-08-24T01:53:55;2.10;;;1.33;;
45578;SDS011;31293;51.390;12.254;2023-08-24T01:55:58;8.60;;;1.50;;
45578;SDS011;31293;51.390;12.254;2023-08-24T01:58:00;3.78;;;2.00;;
45578;SDS011;31293;51.390;12.254;2023-08-24T02:00:05;1.95;;;1.10;;
45578;SDS011;31293;51.390;12.254;2023-08-24T02:02:10;1.98;;;1.42;;
45578;SDS011;31293;51.390;12.254;2023-08-24T02:04:12;2.90;;;1.20;;
45578;SDS011;31293;51.390;12.254;2023-08-24T02:06:15;1.45;;;1.25;;
45578;SDS011;31293;51.390;12.254;2023-08-24T02:08:16;3.22;;;1.38;;
45578;SDS011;31293;51.390;12.254;2023-08-24T02:10:19;3.83;;;2.03;;
45578;SDS011;31293;51.390;12.254;2023-08-24T02:12:21;1.35;;;1.00;;
45578;SDS011;31293;51.390;12.254;2023-08-24T02:14:23;2.17;;;1.25;;
45578;SDS011;31293;51.390;12.254;2023-08-24T02:16:25;1.40;;;0.98;;
45578;SDS011;31293;51.390;12.254;2023-08-24T02:18:26;2.88;;;1.17;;
45578;SDS011;31293;51.390;12.254;2023-08-24T02:20:28;8.35;;;1.67;;
45578;SDS011;31293;51.390;12.254;2023-08-24T02:22:30;4.65;;;1.92;;
45578;SDS011;31293;51.390;12.254;2023-08-24T02:24:32;6.03;;;1.45;;
45578;SDS011;31293;51.390;12.254;2023-08-24T02:26:34;4.28;;;1.63;;
45578;SDS011;31293;51.390;12.254;2023-08-24T02:28:36;3.03;;;1.65;;
45578;SDS011;31293;51.390;12.254;2023-08-24T02:30:38;2.83;;;1.05;;
45578;SDS011;31293;51.390;12.254;2023-08-24T02:32:40;1.38;;;1.27;;
45578;SDS011;31293;51.390;12.254;2023-08-24T02:34:42;3.67;;;1.10;;
45578;SDS011;31293;51.390;12.254;2023-08-24T02:36:45;1.40;;;1.10;;
45578;SDS011;31293;51.390;12.254;2023-08-24T02:38:47;1.38;;;1.27;;
45578;SDS011;31293;51.390;12.254;2023-08-24T02:40:49;2.22;;;1.17;;
45578;SDS011;31293;51.390;12.254;2023-08-24T02:43:01;2.20;;;1.40;;
45578;SDS011;31293;51.390;12.254;2023-08-24T02:45:03;1.38;;;1.17;;
45578;SDS011;31293;51.390;12.254;2023-08-24T02:47:05;3.28;;;2.13;;
45578;SDS011;31293;51.390;12.254;2023-08-24T02:49:07;5.32;;;1.58;;
45578;SDS011;31293;51.390;12.254;2023-08-24T02:51:09;2.80;;;1.40;;
45578;SDS011;31293;51.390;12.254;2023-08-24T02:53:11;1.40;;;1.20;;
45578;SDS011;31293;51.390;12.254;2023-08-24T02:55:13;4.95;;;1.40;;
45578;SDS011;31293;51.390;12.254;2023-08-24T02:57:15;2.38;;;1.20;;
45578;SDS011;31293;51.390;12.254;2023-08-24T02:59:17;4.70;;;1.05;;
45578;SDS011;31293;51.390;12.254;2023-08-24T03:01:19;2.30;;;1.52;;
45578;SDS011;31293;51.390;12.254;2023-08-24T03:03:21;1.60;;;1.35;;
45578;SDS011;31293;51.390;12.254;2023-08-24T03:05:24;6.20;;;2.13;;
45578;SDS011;31293;51.390;12.254;2023-08-24T03:07:26;4.43;;;1.58;;
45578;SDS011;31293;51.390;12.254;2023-08-24T03:09:28;1.95;;;1.40;;
45578;SDS011;31293;51.390;12.254;2023-08-24T03:11:30;1.50;;;1.30;;
45578;SDS011;31293;51.390;12.254;2023-08-24T03:13:36;4.82;;;1.52;;
45578;SDS011;31293;51.390;12.254;2023-08-24T03:15:41;1.95;;;1.17;;
45578;SDS011;31293;51.390;12.254;2023-08-24T03:17:43;2.40;;;1.25;;
45578;SDS011;31293;51.390;12.254;2023-08-24T03:19:45;2.22;;;1.90;;
45578;SDS011;31293;51.390;12.254;2023-08-24T03:21:47;2.15;;;1.50;;
45578;SDS011;31293;51.390;12.254;2023-08-24T03:23:49;2.00;;;1.35;;
45578;SDS011;31293;51.390;12.254;2023-08-24T03:25:50;1.50;;;1.17;;
45578;SDS011;31293;51.390;12.254;2023-08-24T03:27:52;3.80;;;1.48;;
45578;SDS011;31293;51.390;12.254;2023-08-24T03:29:54;1.40;;;1.30;;
45578;SDS011;31293;51.390;12.254;2023-08-24T03:31:57;1.90;;;1.63;;
45578;SDS011;31293;51.390;12.254;2023-08-24T03:33:59;2.13;;;1.42;;
45578;SDS011;31293;51.390;12.254;2023-08-24T03:36:01;4.50;;;1.45;;
45578;SDS011;31293;51.390;12.254;2023-08-24T03:38:04;2.38;;;1.60;;
45578;SDS011;31293;51.390;12.254;2023-08-24T03:40:06;3.30;;;1.55;;
45578;SDS011;31293;51.390;12.254;2023-08-24T03:42:08;4.90;;;1.50;;
45578;SDS011;31293;51.390;12.254;2023-08-24T03:44:10;3.95;;;1.75;;
45578;SDS011;31293;51.390;12.254;2023-08-24T03:46:12;1.52;;;1.23;;
45578;SDS011;31293;51.390;12.254;2023-08-24T03:48:14;1.60;;;1.33;;
45578;SDS011;31293;51.390;12.254;2023-08-24T03:50:22;4.13;;;1.60;;
45578;SDS011;31293;51.390;12.254;2023-08-24T03:52:23;2.03;;;1.77;;
45578;SDS011;31293;51.390;12.254;2023-08-24T03:54:25;1.95;;;1.35;;
45578;SDS011;31293;51.390;12.254;2023-08-24T03:56:27;2.05;;;1.70;;
45578;SDS011;31293;51.390;12.254;2023-08-24T03:58:29;4.85;;;2.15;;
45578;SDS011;31293;51.390;12.254;2023-08-24T04:00:31;1.77;;;1.48;;
45578;SDS011;31293;51.390;12.254;2023-08-24T04:02:33;1.90;;;1.52;;
45578;SDS011;31293;51.390;12.254;2023-08-24T04:04:35;2.05;;;1.60;;
45578;SDS011;31293;51.390;12.254;2023-08-24T04:06:37;3.53;;;1.90;;
45578;SDS011;31293;51.390;12.254;2023-08-24T04:08:39;2.42;;;2.10;;
45578;SDS011;31293;51.390;12.254;2023-08-24T04:10:41;2.50;;;2.22;;
45578;SDS011;31293;51.390;12.254;2023-08-24T04:12:43;4.63;;;1.75;;
45578;SDS011;31293;51.390;12.254;2023-08-24T04:14:45;1.98;;;1.85;;
45578;SDS011;31293;51.390;12.254;2023-08-24T04:16:48;1.70;;;1.60;;
45578;SDS011;31293;51.390;12.254;2023-08-24T04:18:50;3.92;;;2.05;;
45578;SDS011;31293;51.390;12.254;2023-08-24T04:20:52;2.25;;;1.75;;
45578;SDS011;31293;51.390;12.254;2023-08-24T04:22:54;1.58;;;1.48;;
45578;SDS011;31293;51.390;12.254;2023-08-24T04:24:57;4.55;;;2.17;;
45578;SDS011;31293;51.390;12.254;2023-08-24T04:26:59;2.97;;;1.83;;
45578;SDS011;31293;51.390;12.254;2023-08-24T04:29:01;3.17;;;1.67;;
45578;SDS011;31293;51.390;12.254;2023-08-24T04:31:03;3.08;;;2.22;;
45578;SDS011;31293;51.390;12.254;2023-08-24T04:33:04;5.40;;;1.85;;
45578;SDS011;31293;51.390;12.254;2023-08-24T04:35:06;2.85;;;1.85;;
45578;SDS011;31293;51.390;12.254;2023-08-24T04:37:09;3.83;;;2.10;;
45578;SDS011;31293;51.390;12.254;2023-08-24T04:39:11;2.58;;;2.38;;
45578;SDS011;31293;51.390;12.254;2023-08-24T04:41:12;1.80;;;1.70;;
45578;SDS011;31293;51.390;12.254;2023-08-24T04:43:14;2.28;;;1.85;;
45578;SDS011;31293;51.390;12.254;2023-08-24T04:45:16;3.25;;;2.70;;
45578;SDS011;31293;51.390;12.254;2023-08-24T04:47:18;2.85;;;2.63;;
45578;SDS011;31293;51.390;12.254;2023-08-24T04:49:20;2.83;;;2.33;;
45578;SDS011;31293;51.390;12.254;2023-08-24T04:51:22;4.15;;;2.92;;
45578;SDS011;31293;51.390;12.254;2023-08-24T04:53:24;4.28;;;3.00;;
45578;SDS011;31293;51.390;12.254;2023-08-24T04:55:27;5.72;;;2.30;;
45578;SDS011;31293;51.390;12.254;2023-08-24T04:57:28;3.97;;;3.08;;
45578;SDS011;31293;51.390;12.254;2023-08-24T04:59:30;9.90;;;3.20;;
45578;SDS011;31293;51.390;12.254;2023-08-24T05:01:32;5.40;;;2.88;;
45578;SDS011;31293;51.390;12.254;2023-08-24T05:03:34;3.45;;;3.00;;
45578;SDS011;31293;51.390;12.254;2023-08-24T05:05:35;4.50;;;2.15;;
45578;SDS011;31293;51.390;12.254;2023-08-24T05:07:38;5.18;;;3.03;;
45578;SDS011;31293;51.390;12.254;2023-08-24T05:09:40;5.25;;;2.55;;
45578;SDS011;31293;51.390;12.254;2023-08-24T05:11:44;2.88;;;2.50;;
45578;SDS011;31293;51.390;12.254;2023-08-24T05:13:46;2.53;;;2.33;;
45578;SDS011;31293;51.390;12.254;2023-08-24T05:15:48;2.47;;;2.28;;
45578;SDS011;31293;51.390;12.254;2023-08-24T05:17:51;2.80;;;2.55;;
45578;SDS011;31293;51.390;12.254;2023-08-24T05:19:58;3.88;;;1.73;;
45578;SDS011;31293;51.390;12.254;2023-08-24T05:22:00;3.60;;;1.98;;
45578;SDS011;31293;51.390;12.254;2023-08-24T05:24:03;2.08;;;1.88;;
45578;SDS011;31293;51.390;12.254;2023-08-24T05:26:05;2.65;;;2.17;;
45578;SDS011;31293;51.390;12.254;2023-08-24T05:28:08;2.72;;;2.13;;
45578;SDS011;31293;51.390;12.254;2023-08-24T05:30:13;2.78;;;2.58;;
45578;SDS011;31293;51.390;12.254;2023-08-24T05:32:15;3.28;;;2.85;;
45578;SDS011;31293;51.390;12.254;2023-08-24T05:34:17;5.05;;;3.60;;
45578;SDS011;31293;51.390;12.254;2023-08-24T05:36:20;4.35;;;3.58;;
45578;SDS011;31293;51.390;12.254;2023-08-24T05:38:22;7.78;;;3.55;;
45578;SDS011;31293;51.390;12.254;2023-08-24T05:40:24;4.40;;;4.00;;
45578;SDS011;31293;51.390;12.254;2023-08-24T05:42:25;3.42;;;2.92;;
45578;SDS011;31293;51.390;12.254;2023-08-24T05:44:27;5.15;;;3.47;;
45578;SDS011;31293;51.390;12.254;2023-08-24T05:46:29;5.93;;;3.65;;
45578;SDS011;31293;51.390;12.254;2023-08-24T05:48:31;6.70;;;3.95;;
45578;SDS011;31293;51.390;12.254;2023-08-24T05:50:33;5.93;;;4.35;;
45578;SDS011;31293;51.390;12.254;2023-08-24T05:52:35;5.22;;;4.55;;
45578;SDS011;31293;51.390;12.254;2023-08-24T05:54:37;5.10;;;4.18;;
45578;SDS011;31293;51.390;12.254;2023-08-24T05:56:39;7.93;;;3.63;;
45578;SDS011;31293;51.390;12.254;2023-08-24T05:58:40;9.57;;;3.63;;
45578;SDS011;31293;51.390;12.254;2023-08-24T06:00:42;5.80;;;4.10;;
45578;SDS011;31293;51.390;12.254;2023-08-24T06:02:44;8.48;;;4.03;;
45578;SDS011;31293;51.390;12.254;2023-08-24T06:04:46;15.20;;;9.00;;
45578;SDS011;31293;51.390;12.254;2023-08-24T06:06:48;9.10;;;5.55;;
45578;SDS011;31293;51.390;12.254;2023-08-24T06:08:49;8.40;;;7.63;;
45578;SDS011;31293;51.390;12.254;2023-08-24T06:10:51;10.20;;;6.05;;
45578;SDS011;31293;51.390;12.254;2023-08-24T06:12:53;10.30;;;4.43;;
45578;SDS011;31293;51.390;12.254;2023-08-24T06:14:55;7.28;;;5.15;;
45578;SDS011;31293;51.390;12.254;2023-08-24T06:16:58;5.60;;;2.75;;
45578;SDS011;31293;51.390;12.254;2023-08-24T06:18:59;3.72;;;3.40;;
45578;SDS011;31293;51.390;12.254;2023-08-24T06:21:01;10.65;;;3.95;;
45578;SDS011;31293;51.390;12.254;2023-08-24T06:23:03;4.15;;;2.75;;
45578;SDS011;31293;51.390;12.254;2023-08-24T06:25:06;6.25;;;4.85;;
45578;SDS011;31293;51.390;12.254;2023-08-24T06:27:09;6.50;;;2.80;;
45578;SDS011;31293;51.390;12.254;2023-08-24T06:29:11;10.98;;;3.33;;
45578;SDS011;31293;51.390;12.254;2023-08-24T06:31:13;6.72;;;2.38;;
45578;SDS011;31293;51.390;12.254;2023-08-24T06:33:17;4.60;;;2.58;;
45578;SDS011;31293;51.390;12.254;2023-08-24T06:35:20;5.00;;;1.80;;
45578;SDS011;31293;51.390;12.254;2023-08-24T06:37:22;5.05;;;2.10;;
45578;SDS011;31293;51.390;12.254;2023-08-24T06:39:23;5.85;;;2.85;;
45578;SDS011;31293;51.390;12.254;2023-08-24T06:41:26;2.85;;;2.30;;
45578;SDS011;31293;51.390;12.254;2023-08-24T06:43:27;5.03;;;2.67;;
45578;SDS011;31293;51.390;12.254;2023-08-24T06:45:29;3.85;;;1.77;;
45578;SDS011;31293;51.390;12.254;2023-08-24T06:47:31;2.65;;;1.13;;
45578;SDS011;31293;51.390;12.254;2023-08-24T06:49:33;7.72;;;2.17;;
45578;SDS011;31293;51.390;12.254;2023-08-24T06:51:35;3.28;;;1.50;;
45578;SDS011;31293;51.390;12.254;2023-08-24T06:53:37;6.43;;;1.80;;
45578;SDS011;31293;51.390;12.254;2023-08-24T06:55:40;2.70;;;1.25;;
45578;SDS011;31293;51.390;12.254;2023-08-24T06:57:42;6.20;;;2.28;;
45578;SDS011;31293;51.390;12.254;2023-08-24T06:59:49;2.63;;;1.40;;
45578;SDS011;31293;51.390;12.254;2023-08-24T07:01:52;3.28;;;1.98;;
45578;SDS011;31293;51.390;12.254;2023-08-24T07:03:54;4.03;;;1.50;;
45578;SDS011;31293;51.390;12.254;2023-08-24T07:05:55;6.82;;;1.90;;
45578;SDS011;31293;51.390;12.254;2023-08-24T07:07:57;5.20;;;1.27;;
45578;SDS011;31293;51.390;12.254;2023-08-24T07:09:59;2.35;;;1.45;;
45578;SDS011;31293;51.390;12.254;2023-08-24T07:12:04;4.03;;;1.42;;
45578;SDS011;31293;51.390;12.254;2023-08-24T07:14:08;3.70;;;1.25;;
45578;SDS011;31293;51.390;12.254;2023-08-24T07:16:10;7.82;;;1.65;;
45578;SDS011;31293;51.390;12.254;2023-08-24T07:18:12;6.63;;;1.85;;
45578;SDS011;31293;51.390;12.254;2023-08-24T07:20:14;9.23;;;2.22;;
45578;SDS011;31293;51.390;12.254;2023-08-24T07:22:16;2.03;;;1.00;;
45578;SDS011;31293;51.390;12.254;2023-08-24T07:24:17;4.55;;;1.20;;
45578;SDS011;31293;51.390;12.254;2023-08-24T07:26:45;3.17;;;1.05;;
45578;SDS011;31293;51.390;12.254;2023-08-24T07:28:47;6.25;;;1.80;;
45578;SDS011;31293;51.390;12.254;2023-08-24T07:30:49;4.68;;;1.63;;
45578;SDS011;31293;51.390;12.254;2023-08-24T07:32:50;4.13;;;1.30;;
45578;SDS011;31293;51.390;12.254;2023-08-24T07:34:52;3.35;;;1.58;;
45578;SDS011;31293;51.390;12.254;2023-08-24T07:36:54;2.75;;;1.20;;
45578;SDS011;31293;51.390;12.254;2023-08-24T07:38:56;3.55;;;1.30;;
45578;SDS011;31293;51.390;12.254;2023-08-24T07:40:58;3.15;;;1.45;;
45578;SDS011;31293;51.390;12.254;2023-08-24T07:43:00;4.20;;;1.38;;
45578;SDS011;31293;51.390;12.254;2023-08-24T07:45:02;4.03;;;1.27;;
45578;SDS011;31293;51.390;12.254;2023-08-24T07:47:04;7.50;;;1.48;;
45578;SDS011;31293;51.390;12.254;2023-08-24T07:49:05;2.67;;;1.60;;
45578;SDS011;31293;51.390;12.254;2023-08-24T07:51:07;6.00;;;1.52;;
45578;SDS011;31293;51.390;12.254;2023-08-24T07:53:09;3.95;;;1.48;;
45578;SDS011;31293;51.390;12.254;2023-08-24T07:55:11;2.10;;;1.02;;
45578;SDS011;31293;51.390;12.254;2023-08-24T07:57:13;8.77;;;1.45;;
45578;SDS011;31293;51.390;12.254;2023-08-24T07:59:15;1.95;;;1.30;;
45578;SDS011;31293;51.390;12.254;2023-08-24T08:01:17;5.18;;;1.25;;
45578;SDS011;31293;51.390;12.254;2023-08-24T08:03:19;3.55;;;1.17;;
45578;SDS011;31293;51.390;12.254;2023-08-24T08:05:21;3.03;;;1.50;;
45578;SDS011;31293;51.390;12.254;2023-08-24T08:07:24;6.50;;;1.40;;
45578;SDS011;31293;51.390;12.254;2023-08-24T08:09:27;3.95;;;1.10;;
45578;SDS011;31293;51.390;12.254;2023-08-24T08:11:28;4.82;;;1.40;;
45578;SDS011;31293;51.390;12.254;2023-08-24T08:13:30;4.00;;;1.00;;
45578;SDS011;31293;51.390;12.254;2023-08-24T08:15:33;5.25;;;1.10;;
45578;SDS011;31293;51.390;12.254;2023-08-24T08:17:35;5.22;;;1.33;;
45578;SDS011;31293;51.390;12.254;2023-08-24T08:19:37;5.07;;;1.38;;
45578;SDS011;31293;51.390;12.254;2023-08-24T08:21:39;4.47;;;1.30;;
45578;SDS011;31293;51.390;12.254;2023-08-24T08:23:41;6.68;;;1.10;;
45578;SDS011;31293;51.390;12.254;2023-08-24T08:25:42;4.30;;;1.17;;
45578;SDS011;31293;51.390;12.254;2023-08-24T08:27:44;2.35;;;1.13;;
45578;SDS011;31293;51.390;12.254;2023-08-24T08:29:46;4.78;;;1.10;;
45578;SDS011;31293;51.390;12.254;2023-08-24T08:31:48;3.60;;;1.00;;
45578;SDS011;31293;51.390;12.254;2023-08-24T08:33:50;2.13;;;0.90;;
45578;SDS011;31293;51.390;12.254;2023-08-24T08:35:52;4.15;;;1.00;;
45578;SDS011;31293;51.390;12.254;2023-08-24T08:37:54;2.50;;;0.98;;
45578;SDS011;31293;51.390;12.254;2023-08-24T08:39:58;3.70;;;0.90;;
45578;SDS011;31293;51.390;12.254;2023-08-24T08:42:00;0.98;;;0.80;;
45578;SDS011;31293;51.390;12.254;2023-08-24T08:44:04;4.70;;;1.27;;
45578;SDS011;31293;51.390;12.254;2023-08-24T08:46:07;4.50;;;0.90;;
45578;SDS011;31293;51.390;12.254;2023-08-24T08:48:10;3.70;;;0.98;;
45578;SDS011;31293;51.390;12.254;2023-08-24T08:50:13;8.13;;;1.38;;
45578;SDS011;31293;51.390;12.254;2023-08-24T08:52:14;7.80;;;1.20;;
45578;SDS011;31293;51.390;12.254;2023-08-24T08:54:16;5.20;;;1.17;;
45578;SDS011;31293;51.390;12.254;2023-08-24T08:56:18;8.98;;;1.67;;
45578;SDS011;31293;51.390;12.254;2023-08-24T08:58:20;7.18;;;1.52;;
45578;SDS011;31293;51.390;12.254;2023-08-24T09:00:23;9.70;;;0.93;;
45578;SDS011;31293;51.390;12.254;2023-08-24T09:02:25;3.83;;;1.52;;
45578;SDS011;31293;51.390;12.254;2023-08-24T09:04:31;4.35;;;1.25;;
45578;SDS011;31293;51.390;12.254;2023-08-24T09:06:33;3.65;;;1.20;;
45578;SDS011;31293;51.390;12.254;2023-08-24T09:08:36;5.60;;;1.35;;
45578;SDS011;31293;51.390;12.254;2023-08-24T09:10:39;5.60;;;1.30;;
45578;SDS011;31293;51.390;12.254;2023-08-24T09:12:41;3.70;;;1.35;;
45578;SDS011;31293;51.390;12.254;2023-08-24T09:14:43;1.88;;;0.93;;
45578;SDS011;31293;51.390;12.254;2023-08-24T09:16:45;1.92;;;1.00;;
45578;SDS011;31293;51.390;12.254;2023-08-24T09:18:47;2.75;;;1.00;;
45578;SDS011;31293;51.390;12.254;2023-08-24T09:20:48;4.90;;;0.90;;
45578;SDS011;31293;51.390;12.254;2023-08-24T09:22:50;3.75;;;0.90;;
45578;SDS011;31293;51.390;12.254;2023-08-24T09:24:55;3.28;;;1.17;;
45578;SDS011;31293;51.390;12.254;2023-08-24T09:27:18;5.93;;;1.63;;
45578;SDS011;31293;51.390;12.254;2023-08-24T09:29:22;4.75;;;1.67;;
45578;SDS011;31293;51.390;12.254;2023-08-24T09:31:34;3.83;;;1.23;;
45578;SDS011;31293;51.390;12.254;2023-08-24T09:33:38;2.08;;;0.95;;
45578;SDS011;31293;51.390;12.254;2023-08-24T09:35:40;2.28;;;1.23;;
45578;SDS011;31293;51.390;12.254;2023-08-24T09:37:42;3.42;;;0.90;;
45578;SDS011;31293;51.390;12.254;2023-08-24T09:39:47;5.18;;;0.85;;
45578;SDS011;31293;51.390;12.254;2023-08-24T09:41:49;3.92;;;0.90;;
45578;SDS011;31293;51.390;12.254;2023-08-24T09:43:51;3.40;;;1.10;;
45578;SDS011;31293;51.390;12.254;2023-08-24T09:45:54;1.45;;;0.80;;
45578;SDS011;31293;51.390;12.254;2023-08-24T09:47:57;3.47;;;1.10;;
45578;SDS011;31293;51.390;12.254;2023-08-24T09:50:01;3.72;;;0.70;;
45578;SDS011;31293;51.390;12.254;2023-08-24T09:52:07;2.97;;;1.10;;
45578;SDS011;31293;51.390;12.254;2023-08-24T09:54:10;2.63;;;0.85;;
45578;SDS011;31293;51.390;12.254;2023-08-24T09:56:14;1.77;;;0.90;;
45578;SDS011;31293;51.390;12.254;2023-08-24T09:58:17;3.95;;;1.05;;
45578;SDS011;31293;51.390;12.254;2023-08-24T10:00:20;4.25;;;1.00;;
45578;SDS011;31293;51.390;12.254;2023-08-24T10:02:26;5.68;;;1.05;;
45578;SDS011;31293;51.390;12.254;2023-08-24T10:04:33;3.08;;;0.90;;
45578;SDS011;31293;51.390;12.254;2023-08-24T10:06:39;8.48;;;0.90;;
45578;SDS011;31293;51.390;12.254;2023-08-24T10:08:47;3.85;;;0.90;;
45578;SDS011;31293;51.390;12.254;2023-08-24T10:10:52;3.50;;;1.13;;
45578;SDS011;31293;51.390;12.254;2023-08-24T10:12:57;6.57;;;1.20;;
45578;SDS011;31293;51.390;12.254;2023-08-24T10:15:02;3.25;;;0.90;;
45578;SDS011;31293;51.390;12.254;2023-08-24T10:19:07;3.83;;;1.45;;
45578;SDS011;31293;51.390;12.254;2023-08-24T10:21:09;2.58;;;0.88;;
45578;SDS011;31293;51.390;12.254;2023-08-24T10:23:12;3.58;;;1.08;;
45578;SDS011;31293;51.390;12.254;2023-08-24T10:25:16;3.65;;;1.25;;
45578;SDS011;31293;51.390;12.254;2023-08-24T10:27:20;6.65;;;1.10;;
45578;SDS011;31293;51.390;12.254;2023-08-24T10:29:27;2.35;;;1.05;;
45578;SDS011;31293;51.390;12.254;2023-08-24T10:31:31;3.83;;;1.55;;
45578;SDS011;31293;51.390;12.254;2023-08-24T10:33:34;1.60;;;0.90;;
45578;SDS011;31293;51.390;12.254;2023-08-24T10:35:36;4.97;;;0.82;;
45578;SDS011;31293;51.390;12.254;2023-08-24T10:37:39;3.83;;;1.13;;
45578;SDS011;31293;51.390;12.254;2023-08-24T10:39:44;2.25;;;1.05;;
45578;SDS011;31293;51.390;12.254;2023-08-24T10:41:47;9.90;;;1.20;;
45578;SDS011;31293;51.390;12.254;2023-08-24T10:44:03;1.67;;;1.25;;
45578;SDS011;31293;51.390;12.254;2023-08-24T10:46:14;5.13;;;1.20;;
45578;SDS011;31293;51.390;12.254;2023-08-24T10:48:18;4.20;;;1.30;;
45578;SDS011;31293;51.390;12.254;2023-08-24T10:50:21;1.80;;;0.95;;
45578;SDS011;31293;51.390;12.254;2023-08-24T10:52:24;2.97;;;1.27;;
45578;SDS011;31293;51.390;12.254;2023-08-24T10:54:30;2.30;;;1.05;;
45578;SDS011;31293;51.390;12.254;2023-08-24T10:56:37;4.75;;;1.23;;
45578;SDS011;31293;51.390;12.254;2023-08-24T10:58:40;2.83;;;1.10;;
45578;SDS011;31293;51.390;12.254;2023-08-24T11:00:42;3.58;;;1.13;;
45578;SDS011;31293;51.390;12.254;2023-08-24T11:02:50;4.88;;;1.25;;
45578;SDS011;31293;51.390;12.254;2023-08-24T11:05:04;5.00;;;1.13;;
45578;SDS011;31293;51.390;12.254;2023-08-24T11:07:07;5.30;;;1.48;;
45578;SDS011;31293;51.390;12.254;2023-08-24T11:09:17;2.90;;;0.90;;
45578;SDS011;31293;51.390;12.254;2023-08-24T11:11:19;5.13;;;1.45;;
45578;SDS011;31293;51.390;12.254;2023-08-24T11:13:26;3.90;;;2.08;;
45578;SDS011;31293;51.390;12.254;2023-08-24T11:15:34;1.73;;;1.17;;
45578;SDS011;31293;51.390;12.254;2023-08-24T11:17:42;4.15;;;1.70;;
45578;SDS011;31293;51.390;12.254;2023-08-24T11:19:50;3.30;;;1.40;;
45578;SDS011;31293;51.390;12.254;2023-08-24T11:21:53;5.40;;;1.77;;
45578;SDS011;31293;51.390;12.254;2023-08-24T11:23:55;2.90;;;1.05;;
45578;SDS011;31293;51.390;12.254;2023-08-24T11:25:58;2.97;;;1.30;;
45578;SDS011;31293;51.390;12.254;2023-08-24T11:28:01;5.88;;;1.60;;
45578;SDS011;31293;51.390;12.254;2023-08-24T11:30:04;3.72;;;1.25;;
45578;SDS011;31293;51.390;12.254;2023-08-24T11:32:06;5.80;;;1.30;;
45578;SDS011;31293;51.390;12.254;2023-08-24T11:34:08;4.40;;;1.38;;
45578;SDS011;31293;51.390;12.254;2023-08-24T11:36:11;3.97;;;1.48;;
45578;SDS011;31293;51.390;12.254;2023-08-24T11:38:13;4.20;;;1.58;;
45578;SDS011;31293;51.390;12.254;2023-08-24T11:40:18;4.15;;;1.20;;
45578;SDS011;31293;51.390;12.254;2023-08-24T11:42:24;4.13;;;1.30;;
45578;SDS011;31293;51.390;12.254;2023-08-24T11:44:26;1.80;;;1.27;;
45578;SDS011;31293;51.390;12.254;2023-08-24T11:46:30;4.25;;;1.60;;
45578;SDS011;31293;51.390;12.254;2023-08-24T11:48:32;4.90;;;0.90;;
45578;SDS011;31293;51.390;12.254;2023-08-24T11:50:34;8.77;;;1.48;;
45578;SDS011;31293;51.390;12.254;2023-08-24T11:52:39;6.22;;;1.70;;
45578;SDS011;31293;51.390;12.254;2023-08-24T11:54:41;5.13;;;1.30;;
45578;SDS011;31293;51.390;12.254;2023-08-24T11:56:44;4.05;;;0.95;;
45578;SDS011;31293;51.390;12.254;2023-08-24T11:58:48;8.98;;;1.30;;
45578;SDS011;31293;51.390;12.254;2023-08-24T12:00:53;3.90;;;1.23;;
45578;SDS011;31293;51.390;12.254;2023-08-24T12:02:56;2.85;;;1.50;;
45578;SDS011;31293;51.390;12.254;2023-08-24T12:07:07;4.55;;;1.10;;
45578;SDS011;31293;51.390;12.254;2023-08-24T12:09:13;3.45;;;1.30;;
45578;SDS011;31293;51.390;12.254;2023-08-24T12:11:17;3.33;;;1.10;;
45578;SDS011;31293;51.390;12.254;2023-08-24T12:13:20;6.15;;;1.20;;
45578;SDS011;31293;51.390;12.254;2023-08-24T12:15:23;6.88;;;1.20;;